createdAt,value
2023-05-01T00:02:11.280Z,16.07
2023-05-01T00:04:39.191Z,15.07
2023-05-01T00:07:08.494Z,16.20
2023-05-01T00:09:36.431Z,16.50
2023-05-01T00:12:04.780Z,10.80
2023-05-01T00:14:32.644Z,14.13
2023-05-01T00:17:01.073Z,16.30
2023-05-01T00:19:29.107Z,15.57
2023-05-01T00:21:57.186Z,13.00
2023-05-01T00:24:26.440Z,15.87
2023-05-01T00:26:54.332Z,20.80
2023-05-01T00:29:22.273Z,21.73
2023-05-01T00:31:50.300Z,15.47
2023-05-01T00:34:18.195Z,17.70
2023-05-01T00:36:48.017Z,9.63
2023-05-01T00:39:17.201Z,11.30
2023-05-01T00:41:46.427Z,18.07
2023-05-01T00:44:14.604Z,18.63
2023-05-01T00:46:43.660Z,23.20
2023-05-01T00:49:11.650Z,10.17
2023-05-01T00:51:39.509Z,19.37
2023-05-01T00:54:07.451Z,19.57
2023-05-01T00:56:35.404Z,19.53
2023-05-01T00:59:05.056Z,14.40
2023-05-01T01:01:33.362Z,15.83
2023-05-01T01:04:02.031Z,19.53
2023-05-01T01:06:35.045Z,22.30
2023-05-01T01:09:09.594Z,20.17
2023-05-01T01:11:41.947Z,23.33
2023-05-01T01:14:13.091Z,20.37
2023-05-01T01:16:43.536Z,21.60
2023-05-01T01:19:22.233Z,24.63
2023-05-01T01:21:51.461Z,17.87
2023-05-01T01:24:27.853Z,12.77
2023-05-01T01:27:13.148Z,21.97
2023-05-01T01:29:45.242Z,26.53
2023-05-01T01:32:28.254Z,15.60
2023-05-01T01:34:59.935Z,18.43
2023-05-01T01:37:31.469Z,18.50
2023-05-01T01:40:02.437Z,24.03
2023-05-01T01:42:32.114Z,29.30
2023-05-01T01:45:03.050Z,15.93
2023-05-01T01:47:32.437Z,16.83
2023-05-01T01:50:04.409Z,14.10
2023-05-01T01:52:32.282Z,23.13
2023-05-01T01:55:01.958Z,19.63
2023-05-01T01:57:29.906Z,22.30
2023-05-01T01:59:57.905Z,15.10
2023-05-01T02:02:27.233Z,20.20
2023-05-01T02:04:56.804Z,19.53
2023-05-01T02:07:26.095Z,29.73
2023-05-01T02:09:54.017Z,17.10
2023-05-01T02:12:22.657Z,20.33
2023-05-01T02:14:51.537Z,18.53
2023-05-01T02:17:20.146Z,18.53
2023-05-01T02:19:48.212Z,16.80
2023-05-01T02:22:17.165Z,18.03
2023-05-01T02:24:46.432Z,20.27
2023-05-01T02:27:17.695Z,26.57
2023-05-01T02:29:45.569Z,18.37
2023-05-01T02:32:13.595Z,25.03
2023-05-01T02:34:42.124Z,24.20
2023-05-01T02:37:11.778Z,25.83
2023-05-01T02:39:39.806Z,23.80
2023-05-01T02:42:09.661Z,25.73
2023-05-01T02:44:53.217Z,22.57
2023-05-01T02:47:21.957Z,24.23
2023-05-01T02:49:51.137Z,26.70
2023-05-01T02:52:19.875Z,20.40
2023-05-01T02:54:47.790Z,21.43
2023-05-01T02:57:18.055Z,22.07
2023-05-01T02:59:45.951Z,15.27
2023-05-01T03:02:13.932Z,24.63
2023-05-01T03:04:41.903Z,25.20
2023-05-01T03:07:09.910Z,15.03
2023-05-01T03:09:38.250Z,27.13
2023-05-01T03:12:06.694Z,22.93
2023-05-01T03:14:35.994Z,25.00
2023-05-01T03:17:03.882Z,19.50
2023-05-01T03:19:31.822Z,16.07
2023-05-01T03:22:00.137Z,17.73
2023-05-01T03:24:28.302Z,23.77
2023-05-01T03:26:56.294Z,24.37
2023-05-01T03:29:24.216Z,30.57
2023-05-01T03:31:53.615Z,15.00
2023-05-01T03:34:21.551Z,20.53
2023-05-01T03:36:49.448Z,22.70
2023-05-01T03:39:17.712Z,24.27
2023-05-01T03:41:45.595Z,19.77
2023-05-01T03:44:13.447Z,17.43
2023-05-01T03:46:41.418Z,12.37
2023-05-01T03:49:10.746Z,16.23
2023-05-01T03:51:38.613Z,13.17
2023-05-01T03:54:07.320Z,23.00
2023-05-01T03:56:36.733Z,18.70
2023-05-01T03:59:04.608Z,15.97
2023-05-01T04:01:33.636Z,15.43
2023-05-01T04:04:02.334Z,15.97
2023-05-01T04:06:31.706Z,19.90
2023-05-01T04:08:59.614Z,13.23
2023-05-01T04:11:27.501Z,14.40
2023-05-01T04:13:55.399Z,14.77
2023-05-01T04:16:23.370Z,11.97
2023-05-01T04:18:51.319Z,15.20
2023-05-01T04:21:19.193Z,18.07
2023-05-01T04:23:48.464Z,10.83
2023-05-01T04:26:16.767Z,11.87
2023-05-01T04:28:44.639Z,12.23
2023-05-01T04:31:12.549Z,15.13
2023-05-01T04:33:40.485Z,19.67
2023-05-01T04:36:08.789Z,16.27
2023-05-01T04:38:38.215Z,8.80
2023-05-01T04:41:07.609Z,7.63
2023-05-01T04:43:35.522Z,9.83
2023-05-01T04:46:04.622Z,12.73
2023-05-01T04:48:32.568Z,9.67
2023-05-01T04:51:00.453Z,8.00
2023-05-01T04:53:28.630Z,14.80
2023-05-01T04:55:56.559Z,10.23
2023-05-01T04:58:25.818Z,7.80
2023-05-01T05:00:53.657Z,5.90
2023-05-01T05:03:22.145Z,8.57
2023-05-01T05:05:50.162Z,12.00
2023-05-01T05:08:18.041Z,13.17
2023-05-01T05:10:46.062Z,10.53
2023-05-01T05:13:13.910Z,8.93
2023-05-01T05:15:43.148Z,10.10
2023-05-01T05:18:11.164Z,11.63
2023-05-01T05:20:42.314Z,9.43
2023-05-01T05:23:10.305Z,7.03
2023-05-01T05:25:38.203Z,5.77
2023-05-01T05:28:06.244Z,8.30
2023-05-01T05:30:34.142Z,11.30
2023-05-01T05:33:03.644Z,8.00
2023-05-01T05:35:31.667Z,13.00
2023-05-01T05:37:59.716Z,14.37
2023-05-01T05:40:27.588Z,5.07
2023-05-01T05:42:56.661Z,11.90
2023-05-01T05:45:24.523Z,10.13
2023-05-01T05:47:52.400Z,12.17
2023-05-01T05:50:21.662Z,12.03
2023-05-01T05:52:49.743Z,6.00
2023-05-01T05:55:17.741Z,11.43
2023-05-01T05:57:45.656Z,7.07
2023-05-01T06:00:14.747Z,8.47
2023-05-01T06:02:42.674Z,4.97
2023-05-01T06:05:11.331Z,7.53
2023-05-01T06:07:40.982Z,5.67
2023-05-01T06:10:09.810Z,6.90
2023-05-01T06:12:39.963Z,6.60
2023-05-01T06:15:15.704Z,6.70
2023-05-01T06:17:43.655Z,7.20
2023-05-01T06:20:13.475Z,7.57
2023-05-01T06:22:42.726Z,13.07
2023-05-01T06:25:11.394Z,9.77
2023-05-01T06:27:39.276Z,11.73
2023-05-01T06:30:09.750Z,10.87
2023-05-01T06:32:37.929Z,7.00
2023-05-01T06:35:06.430Z,7.37
2023-05-01T06:37:34.475Z,10.73
2023-05-01T06:40:04.789Z,8.80
2023-05-01T06:42:32.774Z,7.10
2023-05-01T06:45:00.971Z,5.20
2023-05-01T06:47:28.898Z,14.67
2023-05-01T06:49:57.022Z,7.47
2023-05-01T06:52:25.695Z,11.20
2023-05-01T06:54:53.525Z,7.97
2023-05-01T06:57:22.942Z,8.03
2023-05-01T06:59:50.837Z,5.77
2023-05-01T07:02:18.760Z,8.00
2023-05-01T07:04:46.709Z,14.03
2023-05-01T07:07:14.655Z,9.97
2023-05-01T07:09:42.663Z,8.77
2023-05-01T07:12:10.548Z,9.93
2023-05-01T07:14:41.547Z,5.37
2023-05-01T07:17:10.221Z,11.67
2023-05-01T07:19:39.013Z,10.90
2023-05-01T07:22:07.048Z,6.17
2023-05-01T07:24:34.939Z,7.37
2023-05-01T07:27:02.909Z,13.50
2023-05-01T07:29:30.936Z,7.57
2023-05-01T07:32:01.468Z,12.80
2023-05-01T07:34:29.403Z,5.87
2023-05-01T07:36:57.528Z,6.17
2023-05-01T07:39:25.447Z,7.27
2023-05-01T07:41:53.316Z,7.93
2023-05-01T07:44:21.211Z,6.17
2023-05-01T07:46:49.126Z,11.40
2023-05-01T07:49:18.378Z,6.67
2023-05-01T07:51:46.721Z,11.10
2023-05-01T07:54:16.202Z,7.20
2023-05-01T07:56:44.508Z,13.17
2023-05-01T07:59:12.420Z,10.00
2023-05-01T08:01:41.280Z,10.93
2023-05-01T08:04:09.289Z,6.10
2023-05-01T08:06:38.687Z,8.07
2023-05-01T08:09:06.583Z,9.37
2023-05-01T08:11:34.968Z,6.63
2023-05-01T08:14:03.847Z,11.67
2023-05-01T08:16:31.813Z,6.50
2023-05-01T08:19:00.014Z,13.90
2023-05-01T08:21:27.846Z,7.20
2023-05-01T08:23:57.699Z,9.97
2023-05-01T08:26:25.600Z,11.50
2023-05-01T08:28:53.521Z,12.73
2023-05-01T08:31:22.867Z,7.73
2023-05-01T08:33:50.827Z,10.67
2023-05-01T08:36:20.693Z,5.17
2023-05-01T08:38:49.199Z,8.97
2023-05-01T08:41:18.656Z,6.47
2023-05-01T08:43:46.552Z,8.40
2023-05-01T08:46:14.632Z,10.37
2023-05-01T08:48:43.630Z,7.63
2023-05-01T08:51:11.566Z,11.70
2023-05-01T08:53:39.435Z,8.83
2023-05-01T08:56:07.729Z,9.60
2023-05-01T08:58:36.963Z,8.97
2023-05-01T09:01:04.857Z,9.13
2023-05-01T09:03:33.363Z,9.33
2023-05-01T09:06:01.456Z,6.97
2023-05-01T09:08:29.387Z,8.00
2023-05-01T09:10:57.308Z,8.50
2023-05-01T09:13:25.193Z,11.07
2023-05-01T09:15:54.503Z,13.57
2023-05-01T09:18:22.599Z,12.30
2023-05-01T09:20:50.577Z,11.80
2023-05-01T09:23:20.256Z,10.33
2023-05-01T09:25:49.561Z,7.53
2023-05-01T09:28:18.709Z,10.47
2023-05-01T09:30:46.741Z,14.93
2023-05-01T09:33:16.940Z,15.60
2023-05-01T09:35:52.089Z,9.93
2023-05-01T09:38:20.917Z,12.40
2023-05-01T09:40:48.924Z,7.07
2023-05-01T09:43:25.595Z,11.07
2023-05-01T09:46:09.396Z,7.60
2023-05-01T09:48:39.011Z,8.93
2023-05-01T09:51:21.967Z,9.67
2023-05-01T09:53:50.180Z,11.57
2023-05-01T09:56:18.477Z,7.40
2023-05-01T09:58:46.745Z,11.30
2023-05-01T10:01:15.310Z,7.33
2023-05-01T10:03:46.380Z,9.67
2023-05-01T10:06:27.239Z,8.20
2023-05-01T10:08:55.249Z,9.27
2023-05-01T10:11:23.610Z,12.40
2023-05-01T10:14:06.501Z,11.30
2023-05-01T10:16:35.855Z,5.40
2023-05-01T10:19:05.275Z,7.43
2023-05-01T10:21:33.601Z,10.07
2023-05-01T10:24:02.394Z,8.83
2023-05-01T10:26:30.280Z,8.93
2023-05-01T10:28:59.927Z,7.37
2023-05-01T10:31:28.920Z,5.73
2023-05-01T10:33:57.011Z,12.57
2023-05-01T10:36:28.650Z,7.77
2023-05-01T10:38:56.588Z,10.50
2023-05-01T10:42:03.769Z,7.47
2023-05-01T10:44:35.052Z,8.13
2023-05-01T10:47:41.559Z,9.13
2023-05-01T10:50:11.517Z,5.00
2023-05-01T10:53:26.537Z,10.90
2023-05-01T10:55:55.939Z,10.77
2023-05-01T10:58:58.332Z,7.13
2023-05-01T11:01:33.049Z,7.07
2023-05-01T11:04:01.958Z,15.40
2023-05-01T11:06:30.090Z,10.57
2023-05-01T11:08:58.585Z,8.93
2023-05-01T11:11:52.407Z,10.10
2023-05-01T11:14:20.299Z,7.97
2023-05-01T11:16:49.647Z,8.00
2023-05-01T11:19:46.036Z,5.43
2023-05-01T11:22:14.273Z,5.80
2023-05-01T11:24:42.560Z,4.90
2023-05-01T11:27:15.785Z,8.53
2023-05-01T11:29:45.946Z,12.27
2023-05-01T11:32:17.973Z,3.57
2023-05-01T11:34:46.133Z,6.03
2023-05-01T11:37:14.578Z,6.78
2023-05-01T11:39:49.692Z,3.50
2023-05-01T11:42:21.350Z,6.38
2023-05-01T11:45:07.906Z,6.38
2023-05-01T11:47:36.252Z,4.72
2023-05-01T11:50:04.318Z,3.38
2023-05-01T11:52:32.310Z,6.53
2023-05-01T11:55:00.390Z,5.95
2023-05-01T11:57:29.776Z,8.63
2023-05-01T11:59:57.723Z,7.70
2023-05-01T12:02:25.874Z,7.05
2023-05-01T12:04:55.714Z,4.85
2023-05-01T12:07:23.975Z,5.45
2023-05-01T12:09:52.032Z,5.00
2023-05-01T12:12:19.994Z,7.53
2023-05-01T12:14:49.394Z,3.80
2023-05-01T12:17:17.665Z,2.05
2023-05-01T12:19:49.952Z,7.45
2023-05-01T12:22:17.967Z,6.93
2023-05-01T12:24:52.866Z,5.55
2023-05-01T12:27:20.914Z,6.50
2023-05-01T12:29:50.244Z,6.82
2023-05-01T12:32:18.288Z,8.27
2023-05-01T12:34:46.242Z,2.75
2023-05-01T12:37:14.136Z,3.83
2023-05-01T12:39:44.677Z,4.85
2023-05-01T12:42:13.216Z,7.07
2023-05-01T12:44:41.101Z,9.05
2023-05-01T12:47:11.062Z,4.07
2023-05-01T12:49:39.060Z,4.03
2023-05-01T12:52:08.876Z,5.32
2023-05-01T12:54:38.507Z,4.53
2023-05-01T12:57:06.638Z,4.07
2023-05-01T12:59:37.788Z,5.65
2023-05-01T13:02:06.651Z,3.10
2023-05-01T13:04:36.189Z,3.08
2023-05-01T13:07:04.131Z,3.70
2023-05-01T13:09:32.371Z,5.63
2023-05-01T13:12:01.931Z,6.25
2023-05-01T13:14:30.563Z,5.90
2023-05-01T13:16:58.432Z,4.45
2023-05-01T13:19:28.867Z,5.35
2023-05-01T13:21:58.665Z,4.32
2023-05-01T13:24:26.722Z,1.67
2023-05-01T13:26:59.492Z,2.97
2023-05-01T13:29:28.373Z,5.38
2023-05-01T13:31:56.407Z,3.38
2023-05-01T13:34:28.888Z,7.25
2023-05-01T13:36:58.197Z,3.80
2023-05-01T13:39:26.333Z,9.27
2023-05-01T13:41:54.293Z,5.38
2023-05-01T13:44:22.837Z,6.70
2023-05-01T13:46:50.930Z,6.47
2023-05-01T13:49:20.317Z,9.07
2023-05-01T13:51:48.861Z,5.28
2023-05-01T13:54:18.153Z,5.85
2023-05-01T13:56:46.652Z,11.25
2023-05-01T13:59:14.610Z,8.02
2023-05-01T14:01:46.338Z,10.63
2023-05-01T14:04:16.931Z,3.17
2023-05-01T14:06:45.302Z,4.40
2023-05-01T14:09:13.189Z,5.70
2023-05-01T14:11:49.120Z,6.97
2023-05-01T14:14:17.649Z,2.60
2023-05-01T14:16:48.533Z,5.68
2023-05-01T14:19:17.352Z,5.10
2023-05-01T14:21:45.392Z,5.28
2023-05-01T14:24:13.615Z,4.93
2023-05-01T14:26:44.424Z,5.22
2023-05-01T14:29:19.788Z,4.68
2023-05-01T14:31:48.168Z,4.28
2023-05-01T14:34:17.250Z,3.10
2023-05-01T14:36:45.206Z,4.63
2023-05-01T14:39:13.342Z,5.30
2023-05-01T14:41:42.381Z,3.03
2023-05-01T14:44:12.721Z,3.50
2023-05-01T14:46:46.334Z,4.07
2023-05-01T14:49:18.994Z,7.00
2023-05-01T14:51:46.945Z,4.95
2023-05-01T14:54:15.105Z,2.10
2023-05-01T14:56:43.549Z,4.10
2023-05-01T14:59:12.491Z,6.65
2023-05-01T15:01:41.869Z,5.07
2023-05-01T15:04:11.021Z,2.97
2023-05-01T15:06:39.418Z,6.95
2023-05-01T15:09:07.499Z,10.25
2023-05-01T15:11:35.644Z,6.10
2023-05-01T15:14:04.131Z,5.20
2023-05-01T15:16:32.853Z,4.05
2023-05-01T15:19:02.405Z,4.28
2023-05-01T15:21:30.523Z,3.17
2023-05-01T15:24:02.220Z,3.60
2023-05-01T15:26:30.269Z,4.45
2023-05-01T15:28:58.638Z,6.95
2023-05-01T15:31:26.570Z,3.45
2023-05-01T15:33:54.640Z,5.60
2023-05-01T15:36:24.179Z,4.10
2023-05-01T15:38:52.685Z,1.58
2023-05-01T15:44:11.016Z,2.55
2023-05-01T15:46:39.006Z,3.60
2023-05-01T15:49:08.623Z,5.53
2023-05-01T15:51:37.874Z,5.75
2023-05-01T15:54:05.822Z,5.00
2023-05-01T15:56:35.796Z,2.65
2023-05-01T15:59:04.437Z,6.97
2023-05-01T16:01:33.123Z,2.72
2023-05-01T16:04:01.355Z,8.07
2023-05-01T16:06:29.989Z,5.30
2023-05-01T16:09:00.291Z,4.38
2023-05-01T16:11:28.498Z,6.35
2023-05-01T16:13:56.466Z,5.00
2023-05-01T16:16:25.519Z,4.15
2023-05-01T16:18:55.483Z,6.38
2023-05-01T16:21:23.643Z,3.58
2023-05-01T16:23:53.051Z,5.25
2023-05-01T16:26:24.764Z,3.85
2023-05-01T16:28:54.800Z,6.78
2023-05-01T16:31:27.411Z,4.28
2023-05-01T16:33:56.814Z,8.10
2023-05-01T16:36:24.846Z,6.40
2023-05-01T16:38:53.709Z,5.13
2023-05-01T16:41:24.308Z,6.68
2023-05-01T16:43:52.279Z,3.67
2023-05-01T16:46:20.756Z,7.23
2023-05-01T16:48:48.680Z,9.30
2023-05-01T16:51:16.580Z,6.37
2023-05-01T16:53:44.444Z,8.57
2023-05-01T16:56:12.971Z,6.27
2023-05-01T16:58:43.788Z,11.27
2023-05-01T17:01:11.971Z,7.60
2023-05-01T17:03:40.093Z,8.30
2023-05-01T17:06:08.511Z,10.03
2023-05-01T17:08:36.518Z,3.87
2023-05-01T17:11:04.655Z,7.73
2023-05-01T17:13:32.748Z,8.27
2023-05-01T17:16:02.090Z,9.07
2023-05-01T17:18:30.248Z,4.47
2023-05-01T17:20:58.158Z,7.20
2023-05-01T17:23:28.174Z,4.73
2023-05-01T17:25:56.041Z,4.63
2023-05-01T17:28:24.366Z,7.33
2023-05-01T17:30:52.715Z,4.33
2023-05-01T17:33:22.012Z,4.40
2023-05-01T17:35:49.939Z,4.20
2023-05-01T17:38:18.171Z,23.20
2023-05-01T17:40:46.270Z,16.60
2023-05-01T17:43:14.207Z,19.77
2023-05-01T17:45:43.900Z,10.67
2023-05-01T17:48:12.126Z,6.80
2023-05-01T17:50:41.438Z,5.70
2023-05-01T17:53:09.627Z,47.30
2023-05-01T17:55:39.139Z,3.97
2023-05-01T17:58:07.532Z,5.27
2023-05-01T18:00:35.787Z,6.90
2023-05-01T18:03:04.733Z,2.20
2023-05-01T18:05:32.764Z,6.87
2023-05-01T18:08:02.026Z,2.60
2023-05-01T18:10:31.301Z,5.30
2023-05-01T18:12:59.345Z,5.60
2023-05-01T18:15:27.254Z,2.00
2023-05-01T18:17:55.196Z,5.97
2023-05-01T18:20:23.739Z,7.30
2023-05-01T18:22:53.324Z,9.57
2023-05-01T18:25:22.914Z,7.53
2023-05-01T18:27:50.870Z,6.00
2023-05-01T18:30:18.836Z,4.50
2023-05-01T18:32:48.792Z,6.47
2023-05-01T18:35:17.792Z,4.93
2023-05-01T18:37:46.531Z,2.93
2023-05-01T18:40:14.681Z,6.23
2023-05-01T18:42:43.958Z,2.37
2023-05-01T18:45:12.122Z,9.50
2023-05-01T18:47:40.068Z,2.83
2023-05-01T18:50:09.367Z,3.43
2023-05-01T18:52:37.917Z,7.53
2023-05-01T18:55:06.532Z,4.90
2023-05-01T18:57:35.094Z,3.23
2023-05-01T19:00:05.852Z,3.63
2023-05-01T19:02:33.814Z,6.83
2023-05-01T19:05:01.830Z,5.93
2023-05-01T19:07:29.832Z,1.83
2023-05-01T19:09:57.816Z,6.30
2023-05-01T19:12:25.859Z,5.30
2023-05-01T19:14:53.730Z,5.23
2023-05-01T19:17:23.139Z,3.57
2023-05-01T19:19:51.183Z,4.93
2023-05-01T19:22:19.205Z,7.17
2023-05-01T19:24:47.119Z,6.90
2023-05-01T19:27:15.002Z,5.20
2023-05-01T19:29:43.300Z,3.50
2023-05-01T19:32:11.749Z,2.93
2023-05-01T19:34:41.251Z,4.63
2023-05-01T19:37:09.403Z,4.00
2023-05-01T19:39:37.435Z,3.70
2023-05-01T19:42:05.527Z,3.93
2023-05-01T19:44:33.483Z,3.17
2023-05-01T19:47:01.949Z,7.83
2023-05-01T19:49:30.050Z,2.30
2023-05-01T19:51:59.506Z,4.70
2023-05-01T19:54:27.545Z,5.40
2023-05-01T19:56:56.205Z,4.17
2023-05-01T19:59:24.154Z,2.00
2023-05-01T20:01:52.299Z,5.97
2023-05-01T20:04:22.953Z,3.27
2023-05-01T20:06:51.521Z,3.97
2023-05-01T20:09:21.034Z,4.83
2023-05-01T20:11:48.885Z,4.60
2023-05-01T20:14:16.772Z,6.53
2023-05-01T20:16:44.909Z,4.00
2023-05-01T20:19:12.890Z,4.13
2023-05-01T20:21:41.097Z,7.07
2023-05-01T20:24:10.464Z,6.80
2023-05-01T20:26:39.719Z,10.03
2023-05-01T20:29:09.392Z,2.20
2023-05-01T20:31:37.412Z,2.30
2023-05-01T20:34:05.787Z,3.83
2023-05-01T20:36:33.871Z,9.70
2023-05-01T20:39:01.827Z,4.77
2023-05-01T20:41:30.921Z,4.77
2023-05-01T20:44:01.066Z,4.67
2023-05-01T20:46:29.468Z,2.57
2023-05-01T20:48:57.652Z,2.43
2023-05-01T20:51:27.330Z,3.90
2023-05-01T20:53:55.205Z,3.40
2023-05-01T20:56:23.731Z,2.27
2023-05-01T20:58:51.584Z,4.20
2023-05-01T21:01:20.973Z,4.13
2023-05-01T21:03:49.130Z,3.87
2023-05-01T21:06:17.167Z,4.00
2023-05-01T21:08:45.104Z,6.17
2023-05-01T21:11:12.993Z,5.67
2023-05-01T21:13:41.027Z,5.57
2023-05-01T21:16:09.118Z,2.67
2023-05-01T21:18:39.064Z,4.87
2023-05-01T21:21:07.100Z,3.77
2023-05-01T21:23:34.976Z,2.40
2023-05-01T21:26:03.216Z,4.30
2023-05-01T21:28:31.118Z,7.27
2023-05-01T21:30:59.024Z,3.87
2023-05-01T21:33:28.423Z,4.87
2023-05-01T21:35:57.704Z,5.23
2023-05-01T21:38:25.592Z,3.17
2023-05-01T21:40:53.471Z,4.73
2023-05-01T21:43:21.383Z,1.87
2023-05-01T21:45:49.758Z,3.33
2023-05-01T21:48:17.690Z,4.37
2023-05-01T21:50:49.096Z,5.87
2023-05-01T21:53:18.349Z,5.67
2023-05-01T21:55:46.426Z,5.60
2023-05-01T21:58:14.591Z,14.80
2023-05-01T22:00:42.730Z,7.53
2023-05-01T22:03:10.909Z,11.13
2023-05-01T22:05:41.039Z,6.27
2023-05-01T22:08:08.957Z,3.17
2023-05-01T22:10:38.197Z,4.10
2023-05-01T22:13:06.500Z,4.80
2023-05-01T22:15:34.649Z,6.13
2023-05-01T22:18:02.665Z,6.70
2023-05-01T22:20:30.793Z,8.10
2023-05-01T22:22:58.750Z,4.40
2023-05-01T22:25:26.698Z,1.90
2023-05-01T22:27:56.087Z,2.90
2023-05-01T22:30:24.013Z,2.60
2023-05-01T22:32:51.949Z,1.97
2023-05-01T22:35:19.906Z,2.57
2023-05-01T22:37:47.915Z,4.00
2023-05-01T22:40:16.043Z,1.70
2023-05-01T22:42:43.924Z,2.57
2023-05-01T22:45:13.181Z,3.23
2023-05-01T22:47:41.179Z,4.90
2023-05-01T22:50:10.062Z,3.63
2023-05-01T22:52:37.939Z,2.97
2023-05-01T22:55:07.102Z,1.90
2023-05-01T22:57:35.116Z,3.93
2023-05-01T23:00:03.120Z,3.90
2023-05-01T23:02:36.466Z,1.60
2023-05-01T23:05:04.907Z,1.40
2023-05-01T23:07:32.776Z,3.30
2023-05-01T23:10:01.045Z,5.63
2023-05-01T23:12:29.244Z,1.70
2023-05-01T23:14:57.523Z,2.27
2023-05-01T23:17:25.406Z,2.67
2023-05-01T23:19:54.791Z,3.93
2023-05-01T23:24:51.030Z,1.90
2023-05-01T23:27:19.794Z,2.47
2023-05-01T23:29:53.890Z,3.20
2023-05-01T23:32:25.001Z,1.80
2023-05-01T23:34:54.933Z,1.60
2023-05-01T23:37:22.939Z,3.50
2023-05-01T23:39:53.546Z,4.93
2023-05-01T23:42:21.622Z,5.83
2023-05-01T23:44:49.659Z,1.73
2023-05-01T23:47:17.559Z,3.03
2023-05-01T23:49:45.452Z,3.63
2023-05-01T23:52:14.692Z,1.53
2023-05-01T23:54:42.928Z,1.57
2023-05-01T23:57:10.818Z,4.40
2023-05-01T23:59:38.711Z,6.77
